Terminal Aerodrome Forecast
Issued by NWS Blacksburg, VA

Current Version | Previous Version | Text Only | Print | Product List | Glossary Off
Versions: 1 2 3 4 5 6 7 8 9 10 11 12 13 14 15 16 17 18 19 20 21 22 23 24 25 26 27 28 29 30 31 32 33 34 35 36 37 38 39 40 41 42 43 44 45

000
FTUS41 KRNK 151520 AAB
TAFBLF
TAF AMD
KBLF 151520Z 1515/1612 08006KT 6SM -RA OVC006
      TEMPO 1515/1518 5SM -RA BR OVC004
     FM151800 05008KT 5SM -RA BR SCT005 OVC015
     FM160200 11007KT P6SM SCT007 OVC025=

USA.gov is the U.S. government's official web portal to all federal, state and local government web resources and services.